Latest Weather Observations for Lochington

IDQ60801

Issued at 9:02 am EST Saturday 5 September 2015 (issued every 30 minutes, with the page automatically refreshed every 10 minutes)

About weather observations | Map of weather stations | Latest weather observations for QLD | Other Formats
Station Details ID: 035139 Name: LOCHINGTON Lat: -23.94 Lon: 147.53 Height: 267.19 m
Data from the previous 72 hours. | See also: Recent months at Lochington
Date/Time
EST
Temp
°C
App
Temp
°C
Dew
Point
Rel
Hum
%
Delta-T
°C
Wind Press
QNH
hPa
Press
MSL
hPa
Rain
since 9 am
mm
Dir
 
Spd
km/h
Gust
km/h
Spd
kts
Gust
kts
05/09:00am 18.4 16.6 7.2 48 5.7 E 6 9 3 5 1022.2 1021.3 -
05/08:30am 15.8 15.2 7.3 57 4.3 CALM 0 0 0 0 1022.2 1021.3 -
05/08:00am 12.9 12.0 7.6 70 2.6 SW 2 4 1 2 1021.9 1021.0 -
05/07:30am 10.7 9.9 6.5 75 2.0 CALM 0 2 0 1 1021.7 1020.8 -
05/07:00am 8.4 7.0 5.7 83 1.2 WNW 2 4 1 2 1021.2 1020.3 -
05/06:30am 6.9 4.9 4.6 85 1.0 WNW 4 4 2 2 1020.9 1020.0 -
05/06:00am 7.4 5.0 4.5 82 1.3 WNW 6 6 3 3 1020.5 1019.5 -
05/05:30am 8.7 6.3 4.3 74 2.0 NW 6 6 3 3 1019.9 1019.0 -
05/05:00am 9.6 7.5 5.6 76 1.8 NW 6 6 3 3 1019.6 1018.7 -
05/04:30am 8.0 5.5 4.8 80 1.4 WNW 7 7 4 4 1019.3 1018.4 -
05/04:00am 8.1 5.6 4.7 79 1.5 WNW 7 9 4 5 1019.1 1018.2 -
05/03:30am 8.1 5.6 4.7 79 1.5 WNW 7 7 4 4 1018.9 1018.0 -
05/03:00am 8.6 6.1 4.8 77 1.7 WNW 7 9 4 5 1019.0 1018.1 0.0
05/02:30am 8.8 6.8 4.6 75 1.9 NW 4 6 2 3 1019.1 1018.2 -
05/02:00am 9.3 7.4 4.7 73 2.1 WNW 4 4 2 2 1019.2 1018.3 -
05/01:30am 9.4 8.2 4.8 73 2.1 CALM 0 0 0 0 1019.5 1018.6 -
05/01:00am 10.3 8.7 4.7 68 2.5 W 2 6 1 3 1019.6 1018.7 -
05/12:30am 11.1 8.7 4.3 63 3.1 NW 6 6 3 3 1019.7 1018.8 -
05/12:00am 11.4 9.4 4.4 62 3.2 NW 4 6 2 3 1019.8 1018.9 -
 
Date/Time
EST
Temp
°C
App
Temp
°C
Dew
Point
Rel
Hum
%
Delta-T
°C
Wind Press
QNH
hPa
Press
MSL
hPa
Rain
since 9 am
mm
Dir
 
Spd
km/h
Gust
km/h
Spd
kts
Gust
kts
04/11:30pm 11.5 9.0 4.7 63 3.1 WNW 7 9 4 5 1019.6 1018.7 -
04/11:00pm 11.5 9.1 4.5 62 3.2 NNE 6 9 3 5 1019.8 1018.9 -
04/10:30pm 11.4 9.2 5.5 67 2.8 W 6 7 3 4 1019.6 1018.7 -
04/10:00pm 12.3 10.5 5.2 62 3.3 WNW 4 4 2 2 1019.5 1018.6 -
04/09:30pm 12.4 10.1 4.9 60 3.5 WNW 6 7 3 4 1019.4 1018.5 -
04/09:00pm 13.3 11.3 4.2 54 4.2 WNW 4 6 2 3 1019.3 1018.4 0.0
04/08:30pm 14.6 13.3 4.3 50 4.8 CALM 0 0 0 0 1019.0 1018.1 -
04/08:00pm 15.7 13.8 2.8 42 5.9 SSE 2 2 1 1 1018.7 1017.8 -
04/07:30pm 17.4 15.0 2.2 36 7.0 SE 4 4 2 2 1018.4 1017.5 -
04/07:00pm 18.6 16.1 1.6 32 7.8 SE 4 6 2 3 1018.0 1017.1 -
04/06:30pm 19.7 16.8 1.2 29 8.5 SSE 6 7 3 4 1017.6 1016.7 -
04/06:00pm 21.3 18.6 0.5 25 9.5 SSE 4 7 2 4 1017.4 1016.5 -
04/05:30pm 23.2 20.1 0.3 22 10.6 S 6 9 3 5 1017.1 1016.1 -
04/05:00pm 24.1 20.8 -0.2 20 11.2 S 7 13 4 7 1016.9 1015.9 -
04/04:30pm 24.9 21.8 1.1 21 11.3 SSW 7 13 4 7 1016.7 1015.7 -
04/04:00pm 24.8 21.9 1.7 22 11.1 SSE 6 13 3 7 1016.7 1015.7 -
04/03:30pm 25.6 22.1 1.0 20 11.7 W 9 19 5 10 1016.8 1015.8 -
04/03:00pm 25.1 22.0 1.3 21 11.4 SW 7 13 4 7 1016.9 1015.9 -
04/02:30pm 24.4 21.2 0.7 21 11.1 SSW 7 15 4 8 1017.3 1016.4 -
04/02:00pm 24.5 21.0 1.4 22 11.0 WSW 9 19 5 10 1017.6 1016.7 -
04/01:30pm 24.0 20.8 2.8 25 10.3 SSW 9 15 5 8 1018.0 1017.1 -
04/01:00pm 23.1 19.5 0.9 23 10.4 SW 9 17 5 9 1018.5 1017.6 -
04/12:30pm 23.3 20.0 2.7 26 10.0 W 9 19 5 10 1019.0 1018.1 -
04/12:00pm 22.2 19.7 4.7 32 8.7 SW 7 15 4 8 1019.5 1018.6 -
04/11:30am 21.2 18.2 4.3 33 8.3 SSW 9 15 5 8 1020.1 1019.1 0.0
04/11:00am 20.9 18.0 4.5 34 8.1 SSW 9 17 5 9 1020.7 1019.8 0.0
04/10:30am 20.4 17.8 4.4 35 7.8 SW 7 13 4 7 1021.2 1020.3 0.0
04/10:00am 19.2 16.8 5.3 40 6.9 SW 7 11 4 6 1021.5 1020.6 0.0
04/09:30am 18.6 16.9 5.8 43 6.4 SSW 4 7 2 4 1021.7 1020.8 0.0
04/09:00am 17.1 15.6 5.1 45 5.8 S 2 6 1 3 1021.9 1021.0 0.0
04/08:30am 14.9 12.7 5.1 52 4.7 WSW 6 7 3 4 1021.8 1020.9 0.0
04/08:00am 13.1 10.9 5.3 59 3.7 WSW 6 9 3 5 1021.6 1020.7 0.0
04/07:30am 11.4 9.1 4.8 64 3.0 W 6 7 3 4 1021.3 1020.4 0.0
04/07:00am 10.0 7.4 4.4 68 2.5 SW 7 11 4 6 1020.8 1019.9 0.0
04/06:30am 8.1 6.0 3.9 75 1.8 WSW 4 7 2 4 1020.5 1019.5 0.0
04/06:00am 7.6 5.1 3.6 76 1.7 WSW 6 7 3 4 1020.2 1019.2 0.0
04/05:30am 9.2 6.7 3.8 69 2.4 SW 6 7 3 4 1019.8 1018.9 0.0
04/05:00am 9.4 7.6 3.6 67 2.6 SSW 2 4 1 2 1019.6 1018.7 0.0
04/04:30am 10.0 7.8 3.5 64 2.9 SW 4 7 2 4 1019.0 1018.1 0.0
04/04:00am 9.7 7.0 3.7 66 2.7 WSW 7 9 4 5 1018.9 1018.0 0.0
04/03:30am 10.4 8.2 3.2 61 3.2 WSW 4 7 2 4 1019.0 1018.1 0.0
04/03:00am 11.2 8.5 3.7 60 3.4 SW 7 9 4 5 1019.1 1018.2 0.0
04/02:30am 10.3 7.7 3.3 62 3.1 WSW 6 7 3 4 1019.2 1018.3 0.0
04/02:00am 11.5 9.7 3.3 57 3.7 SSW 2 4 1 2 1019.3 1018.4 0.0
04/01:30am 12.3 9.6 3.5 55 4.0 SW 7 11 4 6 1019.2 1018.3 0.0
04/01:00am 12.4 9.8 4.1 57 3.8 SSW 7 11 4 6 1019.4 1018.5 0.0
04/12:30am 11.6 9.4 3.6 58 3.6 WSW 4 7 2 4 1019.2 1018.3 0.0
04/12:00am 12.0 9.5 3.8 57 3.7 SW 6 9 3 5 1019.1 1018.2 0.0
 
Date/Time
EST
Temp
°C
App
Temp
°C
Dew
Point
Rel
Hum
%
Delta-T
°C
Wind Press
QNH
hPa
Press
MSL
hPa
Rain
since 9 am
mm
Dir
 
Spd
km/h
Gust
km/h
Spd
kts
Gust
kts
03/11:30pm 12.7 10.2 3.6 54 4.1 SW 6 6 3 3 1019.2 1018.3 0.0
03/11:00pm 12.7 10.9 3.4 53 4.2 W 2 4 1 2 1019.1 1018.2 0.0
03/10:30pm 13.9 11.7 3.1 48 4.9 WSW 4 6 2 3 1019.1 1018.2 0.0
03/10:00pm 14.9 12.2 2.8 44 5.5 WSW 6 9 3 5 1019.0 1018.1 0.0
03/09:30pm 14.6 12.3 2.5 44 5.5 W 4 6 2 3 1018.8 1017.9 0.0
03/09:00pm 14.8 12.5 2.7 44 5.5 SSW 4 6 2 3 1018.5 1017.6 0.0
03/08:30pm 15.5 12.5 2.3 41 6.0 WNW 7 9 4 5 1018.0 1017.1 0.0
03/08:00pm 16.0 13.1 1.3 37 6.5 WNW 6 7 3 4 1017.7 1016.8 0.0
03/07:30pm 18.7 15.1 0.8 30 8.1 W 9 13 5 7 1017.4 1016.5 0.0
03/07:00pm 19.5 16.2 0.0 27 8.7 WSW 7 11 4 6 1016.9 1015.9 0.0
03/06:30pm 21.3 17.4 -1.3 22 10.0 W 9 13 5 7 1016.4 1015.4 0.0
03/06:00pm 22.5 18.2 -1.6 20 10.7 W 11 17 6 9 1015.9 1015.0 0.0
03/05:30pm 24.1 19.7 -2.4 17 11.7 W 11 20 6 11 1015.5 1014.6 0.0
03/05:00pm 24.9 18.7 -3.5 15 12.4 WSW 20 32 11 17 1015.4 1014.5 0.0
03/04:30pm 25.4 18.7 -4.0 14 12.8 WSW 22 30 12 16 1015.4 1014.5 0.0
03/04:00pm 26.2 19.1 -4.4 13 13.3 WSW 24 39 13 21 1015.4 1014.5 0.0
03/03:30pm 26.1 19.4 -4.4 13 13.2 W 22 37 12 20 1015.4 1014.5 0.0
03/03:00pm 26.1 19.5 -3.5 14 13.0 W 22 39 12 21 1015.4 1014.5 0.0
03/02:30pm 26.1 19.2 -2.5 15 12.8 W 24 37 13 20 1015.5 1014.6 0.0
03/02:00pm 25.7 19.6 -2.0 16 12.5 WSW 20 41 11 22 1015.8 1014.9 0.0
03/01:30pm 25.3 18.4 -2.3 16 12.4 W 24 39 13 21 1016.0 1015.1 0.0
03/01:00pm 24.6 18.5 -2.0 17 11.9 W 20 33 11 18 1016.5 1015.5 0.0
03/12:30pm 23.6 17.1 -2.8 17 11.5 W 22 37 12 20 1017.0 1016.0 0.0
03/12:00pm 22.9 16.9 -1.9 19 11.0 W 20 33 11 18 1017.5 1016.6 0.0
03/11:30am 23.1 17.4 -0.4 21 10.7 W 19 30 10 16 1018.2 1017.3 0.0
03/11:00am 22.3 16.9 -1.1 21 10.4 W 17 28 9 15 1018.7 1017.8 0.0
03/10:30am 21.3 16.8 -0.6 23 9.8 W 13 24 7 13 1019.2 1018.3 0.0
03/10:00am 20.6 15.7 -0.7 24 9.4 WSW 15 28 8 15 1019.6 1018.7 0.0
03/09:30am 19.7 14.3 -1.4 24 9.2 W 17 26 9 14 1019.5 1018.6 0.0
03/09:00am 19.1 14.8 -1.9 24 9.0 WSW 11 19 6 10 1019.4 1018.5 0.0
03/08:30am 18.0 12.9 -2.3 25 8.5 SW 15 24 8 13 1019.2 1018.3 0.0
03/08:00am 18.1 14.1 0.7 31 7.8 WSW 11 19 6 10 1018.9 1018.0 0.0
03/07:30am 17.4 13.9 3.3 39 6.6 SW 11 17 6 9 1018.3 1017.4 0.0
03/07:00am 17.1 13.7 4.1 42 6.2 WSW 11 19 6 10 1017.6 1016.7 0.0
03/06:30am 16.5 13.8 5.8 49 5.2 WSW 9 13 5 7 1016.8 1015.8 0.0
03/06:00am 17.0 15.1 7.4 53 4.9 WSW 7 9 4 5 1016.2 1015.2 0.0
03/05:30am 17.3 15.6 8.2 55 4.7 WSW 7 13 4 7 1015.6 1014.7 0.0
03/05:00am 16.9 15.9 10.3 65 3.5 SW 6 9 3 5 1015.0 1014.1 0.0
03/04:30am 16.1 15.4 11.9 76 2.3 W 7 11 4 6 1014.5 1013.6 0.0
03/04:00am 16.9 16.6 12.8 77 2.3 WSW 6 7 3 4 1014.1 1013.2 0.0
03/03:30am 18.3 18.5 13.0 71 3.0 WSW 4 4 2 2 1014.0 1013.1 0.0
03/03:00am 18.3 18.5 13.2 72 2.9 WSW 4 6 2 3 1014.2 1013.3 0.0
03/02:30am 19.8 19.7 14.0 69 3.4 SW 7 11 4 6 1014.1 1013.2 0.0
03/02:00am 18.7 19.9 15.9 84 1.7 WSW 4 7 2 4 1013.6 1012.6 0.0
03/01:30am 19.4 20.6 15.9 80 2.1 W 4 7 2 4 1013.2 1012.2 0.0
03/01:00am 20.4 21.6 16.0 76 2.7 E 4 7 2 4 1013.2 1012.2 0.0
03/12:30am 21.3 22.3 16.3 73 3.1 NE 6 9 3 5 1013.0 1012.0 0.0
03/12:00am 22.0 22.1 16.5 71 3.4 ENE 11 15 6 8 1013.1 1012.1 0.0
 
Date/Time
EST
Temp
°C
App
Temp
°C
Dew
Point
Rel
Hum
%
Delta-T
°C
Wind Press
QNH
hPa
Press
MSL
hPa
Rain
since 9 am
mm
Dir
 
Spd
km/h
Gust
km/h
Spd
kts
Gust
kts
02/11:30pm 22.5 23.3 16.3 68 3.8 E 7 11 4 6 1013.2 1012.2 0.0
02/11:00pm 22.7 22.7 14.3 59 5.0 ESE 7 11 4 6 1013.2 1012.2 0.0
02/10:30pm 22.9 23.3 14.7 60 4.9 ESE 6 11 3 6 1012.6 1011.6 0.0
02/10:00pm 23.9 23.6 13.2 51 6.3 NNE 7 9 4 5 1012.0 1011.1 0.0
02/09:30pm 23.6 23.4 12.9 51 6.2 N 6 7 3 4 1011.9 1011.0 0.0
02/09:00pm 24.4 23.4 12.4 47 7.0 NNE 9 11 5 6 1011.7 1010.8 0.0
02/08:30pm 24.5 23.4 12.1 46 7.2 NNE 9 11 5 6 1011.5 1010.6 0.0
02/08:00pm 24.6 23.7 12.5 46 7.0 NNE 9 9 5 5 1011.6 1010.7 0.0
02/07:30pm 24.4 23.2 11.7 45 7.3 N 9 9 5 5 1011.5 1010.6 0.0
02/07:00pm 27.4 23.9 11.0 36 9.4 NNW 20 30 11 16 1011.3 1010.4 0.0
02/06:30pm 26.0 25.2 11.7 41 8.3 NNW 7 9 4 5 1011.2 1010.3 0.0
02/06:00pm 27.8 26.5 11.4 36 9.5 N 9 11 5 6 1010.9 1010.0 0.0
02/05:30pm 29.1 27.4 11.2 33 10.4 NNW 11 17 6 9 1010.7 1009.8 0.0
02/05:00pm 29.8 27.7 11.3 32 10.8 N 13 19 7 10 1010.6 1009.6 0.0
02/04:30pm 30.1 27.9 12.1 33 10.6 NNE 15 22 8 12 1010.8 1009.9 0.0
02/04:00pm 29.9 27.8 12.3 33 10.4 NNE 15 22 8 12 1011.0 1010.1 0.0
02/03:30pm 31.3 29.2 13.6 34 10.8 NNE 17 24 9 13 1011.3 1010.4 0.0
02/03:00pm 31.0 29.3 13.7 34 10.5 N 15 28 8 15 1011.6 1010.7 0.0
02/02:30pm 30.3 28.2 13.6 36 10.1 NNE 17 28 9 15 1012.4 1011.4 0.0
02/02:00pm 29.6 27.4 15.0 41 9.0 NE 20 30 11 16 1012.8 1011.8 0.0
02/01:30pm 29.4 27.2 14.8 41 9.0 NNE 20 33 11 18 1013.5 1012.5 0.0
02/01:00pm 27.7 26.4 15.7 48 7.4 NNE 17 26 9 14 1014.5 1013.6 0.0
02/12:30pm 27.2 25.9 15.9 50 7.0 N 17 28 9 15 1015.2 1014.3 0.0
02/12:00pm 25.8 24.9 15.8 54 6.2 NNE 15 20 8 11 1016.3 1015.3 0.0
02/11:30am 25.2 24.9 16.4 58 5.5 NNE 13 22 7 12 1016.8 1015.8 0.0
02/11:00am 22.8 22.2 15.6 64 4.4 NNE 13 20 7 11 1017.7 1016.8 0.0
02/10:30am 22.2 22.0 15.8 67 3.9 NNE 11 22 6 12 1018.2 1017.3 0.0
02/10:00am 22.6 22.3 16.4 68 3.8 NE 13 20 7 11 1018.5 1017.6 0.0
02/09:30am 20.4 20.8 15.4 73 3.0 ENE 7 15 4 8 1018.7 1017.8 0.0

Other Formats:

Comma delimited format used in spreadsheet applications
http://www.bom.gov.au/fwo/IDQ60801/IDQ60801.94399.axf

JavaScript Object Notation format (JSON) in row-major order
http://www.bom.gov.au/fwo/IDQ60801/IDQ60801.94399.json